createdAt,value
2022-10-18T00:04:48.210Z,12.27
2022-10-18T00:10:19.157Z,12.35
2022-10-18T00:15:58.493Z,12.10
2022-10-18T00:21:29.832Z,11.65
2022-10-18T00:27:00.986Z,11.55
2022-10-18T00:32:32.079Z,11.18
2022-10-18T00:38:03.280Z,11.10
2022-10-18T00:44:10.967Z,11.32
2022-10-18T00:49:50.723Z,11.10
2022-10-18T00:55:22.061Z,12.32
2022-10-18T01:00:53.140Z,12.38
2022-10-18T01:06:24.307Z,11.57
2022-10-18T01:12:08.179Z,12.23
2022-10-18T01:17:48.341Z,11.40
2022-10-18T01:23:33.959Z,11.90
2022-10-18T01:29:32.365Z,12.32
2022-10-18T01:35:07.295Z,11.77
2022-10-18T01:40:40.242Z,11.95
2022-10-18T01:46:14.970Z,12.25
2022-10-18T01:51:46.000Z,12.60
2022-10-18T01:57:29.107Z,11.63
2022-10-18T02:03:15.019Z,11.73
2022-10-18T02:09:03.988Z,11.90
2022-10-18T02:14:35.315Z,12.18
2022-10-18T02:20:09.352Z,12.05
2022-10-18T02:25:40.671Z,11.95
2022-10-18T02:31:17.787Z,12.13
2022-10-18T02:36:53.052Z,11.43
2022-10-18T02:42:24.045Z,11.57
2022-10-18T02:47:55.069Z,11.57
2022-10-18T02:53:26.238Z,11.10
2022-10-18T02:58:57.129Z,11.52
2022-10-18T03:10:05.056Z,10.88
2022-10-18T03:15:36.304Z,11.13
2022-10-18T03:21:08.275Z,10.48
2022-10-18T03:26:39.267Z,10.40
2022-10-18T03:32:10.271Z,10.13
2022-10-18T03:37:41.492Z,10.63
2022-10-18T03:43:12.424Z,10.15
2022-10-18T03:48:43.466Z,10.23
2022-10-18T03:54:14.777Z,9.25
2022-10-18T03:59:45.642Z,9.82
2022-10-18T04:05:16.748Z,9.68
2022-10-18T04:10:48.098Z,9.40
2022-10-18T04:16:19.442Z,9.15
2022-10-18T04:21:50.693Z,8.82
2022-10-18T04:27:22.051Z,8.48
2022-10-18T04:32:52.934Z,9.18
2022-10-18T04:38:24.023Z,9.02
2022-10-18T04:43:55.319Z,9.10
2022-10-18T04:49:26.182Z,8.68
2022-10-18T04:54:57.061Z,8.30
2022-10-18T05:00:27.723Z,8.27
2022-10-18T05:06:03.140Z,8.20
2022-10-18T05:11:34.881Z,8.88
2022-10-18T05:17:06.815Z,8.52
2022-10-18T05:22:37.784Z,8.02
2022-10-18T05:28:11.104Z,7.60
2022-10-18T05:33:46.535Z,7.93
2022-10-18T05:39:17.492Z,7.25
2022-10-18T05:44:48.810Z,8.52
2022-10-18T05:50:19.920Z,7.00
2022-10-18T05:55:50.971Z,6.88
2022-10-18T06:01:22.500Z,6.85
2022-10-18T06:06:54.199Z,7.22
2022-10-18T06:12:25.225Z,7.32
2022-10-18T06:17:56.447Z,6.68
2022-10-18T06:23:28.218Z,6.32
2022-10-18T06:28:59.509Z,6.05
2022-10-18T06:34:31.204Z,6.05
2022-10-18T06:40:02.234Z,5.75
2022-10-18T06:45:33.691Z,6.20
2022-10-18T06:51:06.392Z,5.97
2022-10-18T06:56:37.461Z,6.53
2022-10-18T07:02:10.360Z,5.78
2022-10-18T07:07:41.550Z,6.03
2022-10-18T07:13:31.605Z,6.45
2022-10-18T07:19:03.956Z,5.80
2022-10-18T07:24:35.482Z,5.72
2022-10-18T07:30:08.444Z,5.47
2022-10-18T07:35:39.478Z,5.90
2022-10-18T07:41:12.333Z,5.85
2022-10-18T07:46:43.384Z,5.43
2022-10-18T07:52:14.392Z,5.57
2022-10-18T07:57:45.289Z,5.30
2022-10-18T08:03:16.411Z,5.28
2022-10-18T08:08:47.493Z,5.18
2022-10-18T08:14:18.769Z,5.38
2022-10-18T08:20:04.709Z,5.13
2022-10-18T08:25:41.121Z,4.85
2022-10-18T08:31:14.383Z,5.13
2022-10-18T08:42:23.904Z,5.15
2022-10-18T08:47:57.756Z,4.68
2022-10-18T08:53:41.130Z,5.40
2022-10-18T08:59:13.211Z,4.63
2022-10-18T09:04:49.890Z,4.68
2022-10-18T09:10:44.929Z,4.43
2022-10-18T09:16:28.913Z,4.78
2022-10-18T09:22:10.713Z,4.88
2022-10-18T09:27:53.958Z,4.25
2022-10-18T09:33:39.667Z,4.70
2022-10-18T09:39:16.026Z,4.45
2022-10-18T09:45:04.379Z,4.93
2022-10-18T09:50:53.782Z,4.55
2022-10-18T09:56:30.927Z,4.70
2022-10-18T10:02:02.230Z,4.78
2022-10-18T10:07:43.609Z,4.35
2022-10-18T10:13:18.017Z,4.78
2022-10-18T10:18:54.099Z,4.80
2022-10-18T10:24:46.800Z,4.65
2022-10-18T10:30:28.908Z,4.82
2022-10-18T10:36:00.887Z,4.80
2022-10-18T10:47:03.903Z,5.90
2022-10-18T10:52:35.107Z,5.60
2022-10-18T10:58:14.705Z,5.43
2022-10-18T11:03:48.232Z,6.38
2022-10-18T11:09:28.495Z,5.30
2022-10-18T11:15:10.391Z,6.53
2022-10-18T11:20:57.095Z,5.93
2022-10-18T11:27:09.081Z,6.15
2022-10-18T11:33:00.916Z,5.70
2022-10-18T11:38:42.380Z,6.03
2022-10-18T11:44:19.324Z,5.78
2022-10-18T11:50:02.978Z,5.78
2022-10-18T11:55:36.747Z,5.72
2022-10-18T12:01:34.617Z,5.75
2022-10-18T12:07:07.826Z,5.28
2022-10-18T12:13:02.308Z,5.63
2022-10-18T12:18:46.497Z,5.38
2022-10-18T12:24:25.685Z,5.55
2022-10-18T12:30:04.572Z,5.82
2022-10-18T12:35:54.678Z,5.75
2022-10-18T12:41:34.358Z,5.90
2022-10-18T12:47:06.108Z,5.57
2022-10-18T12:52:37.413Z,6.07
2022-10-18T12:58:15.017Z,5.80
2022-10-18T13:03:55.141Z,6.18
2022-10-18T13:09:40.778Z,5.55
2022-10-18T13:15:26.292Z,5.80
2022-10-18T13:21:17.607Z,5.47
2022-10-18T13:27:24.054Z,5.75
2022-10-18T13:33:22.357Z,6.00
2022-10-18T13:39:02.763Z,5.70
2022-10-18T13:44:38.048Z,5.68
2022-10-18T13:50:30.453Z,5.90
2022-10-18T13:56:13.856Z,5.70
2022-10-18T14:02:49.885Z,5.73
2022-10-18T14:08:21.290Z,5.63
2022-10-18T14:14:00.401Z,5.90
2022-10-18T14:19:44.986Z,6.35
2022-10-18T14:25:20.528Z,5.72
2022-10-18T14:30:58.269Z,4.97
2022-10-18T14:36:41.985Z,5.20
2022-10-18T14:42:21.323Z,5.65
2022-10-18T14:47:52.415Z,5.22
2022-10-18T14:53:25.398Z,5.78
2022-10-18T14:59:03.262Z,5.18
2022-10-18T15:04:34.426Z,4.95
2022-10-18T15:10:11.159Z,5.28
2022-10-18T15:15:47.411Z,4.88
2022-10-18T15:21:24.203Z,5.10
2022-10-18T15:27:00.117Z,5.03
2022-10-18T15:32:32.042Z,5.10
2022-10-18T15:38:26.386Z,4.95
2022-10-18T15:44:11.560Z,4.07
2022-10-18T15:49:45.387Z,4.88
2022-10-18T15:55:31.730Z,4.50
2022-10-18T16:01:04.612Z,4.50
2022-10-18T16:06:39.023Z,4.27
2022-10-18T16:12:10.341Z,4.30
2022-10-18T16:17:41.818Z,4.65
2022-10-18T16:23:22.706Z,4.47
2022-10-18T16:28:55.110Z,4.78
2022-10-18T16:34:27.509Z,4.53
2022-10-18T16:39:58.691Z,3.90
2022-10-18T16:45:30.016Z,4.43
2022-10-18T16:51:01.242Z,4.93
2022-10-18T16:56:32.874Z,3.85
2022-10-18T17:02:09.290Z,4.53
2022-10-18T17:07:40.171Z,4.63
2022-10-18T17:13:11.739Z,5.03
2022-10-18T17:18:42.835Z,4.65
2022-10-18T17:24:14.102Z,6.13
2022-10-18T17:29:45.207Z,5.38
2022-10-18T17:35:16.502Z,5.10
2022-10-18T17:40:52.935Z,4.70
2022-10-18T17:46:24.228Z,5.57
2022-10-18T17:51:55.492Z,4.22
2022-10-18T17:57:26.849Z,5.03
2022-10-18T18:02:59.343Z,4.45
2022-10-18T18:08:31.390Z,4.57
2022-10-18T18:14:03.125Z,4.15
2022-10-18T18:19:34.881Z,4.32
2022-10-18T18:25:06.496Z,3.90
2022-10-18T18:30:40.084Z,4.45
2022-10-18T18:36:11.650Z,3.92
2022-10-18T18:41:42.759Z,4.43
2022-10-18T18:47:13.932Z,4.45
2022-10-18T18:52:45.100Z,4.80
2022-10-18T18:58:16.736Z,4.28
2022-10-18T19:03:49.901Z,4.57
2022-10-18T19:09:24.125Z,3.63
2022-10-18T19:14:55.162Z,4.35
2022-10-18T19:20:26.117Z,4.80
2022-10-18T19:26:12.321Z,4.53
2022-10-18T19:31:43.402Z,4.97
2022-10-18T19:37:15.795Z,5.38
2022-10-18T19:42:46.877Z,4.53
2022-10-18T19:48:17.824Z,4.47
2022-10-18T19:53:48.985Z,5.32
2022-10-18T19:59:22.814Z,4.47
2022-10-18T20:04:54.366Z,4.90
2022-10-18T20:10:25.224Z,3.95
2022-10-18T20:15:56.184Z,4.40
2022-10-18T20:21:28.711Z,3.50
2022-10-18T20:27:00.130Z,3.80
2022-10-18T20:32:31.165Z,3.90
2022-10-18T20:38:02.130Z,3.50
2022-10-18T20:43:34.764Z,3.60
2022-10-18T20:49:07.370Z,3.53
2022-10-18T20:54:38.229Z,3.20
2022-10-18T21:00:11.765Z,3.53
2022-10-18T21:11:14.283Z,3.08
2022-10-18T21:16:45.811Z,3.13
2022-10-18T21:22:17.056Z,3.33
2022-10-18T21:27:47.947Z,2.90
2022-10-18T21:33:18.824Z,3.45
2022-10-18T21:38:49.833Z,3.60
2022-10-18T21:44:20.967Z,3.40
2022-10-18T21:49:52.294Z,2.78
2022-10-18T21:55:23.637Z,3.20
2022-10-18T22:00:54.877Z,3.28
2022-10-18T22:06:29.464Z,3.45
2022-10-18T22:12:00.982Z,2.78
2022-10-18T22:17:32.532Z,2.95
2022-10-18T22:23:04.325Z,2.97
2022-10-18T22:28:36.175Z,3.20
2022-10-18T22:34:18.261Z,3.08
2022-10-18T22:39:49.464Z,3.08
2022-10-18T22:45:20.297Z,2.30
2022-10-18T22:50:51.296Z,2.83
2022-10-18T22:56:23.690Z,3.00
2022-10-18T23:01:54.722Z,3.00
2022-10-18T23:07:25.536Z,2.83
2022-10-18T23:12:56.552Z,2.50
2022-10-18T23:18:27.641Z,2.50
2022-10-18T23:23:58.584Z,2.50
2022-10-18T23:29:29.824Z,2.40
2022-10-18T23:35:00.935Z,2.70
2022-10-18T23:40:31.830Z,2.47
2022-10-18T23:46:02.839Z,2.45
2022-10-18T23:51:34.060Z,2.30
2022-10-18T23:57:05.075Z,2.40
